sensor_id;sensor_type;location;lat;lon;timestamp;pressure;altitude;pressure_sealevel;temperature;humidity
8051;BME280;4068;42.158;24.732;2023-02-10T00:01:08;101881.72;;;-6.13;100.00
8051;BME280;4068;42.158;24.732;2023-02-10T00:03:35;101873.94;;;-6.15;100.00
8051;BME280;4068;42.158;24.732;2023-02-10T00:06:01;101876.41;;;-6.19;100.00
8051;BME280;4068;42.158;24.732;2023-02-10T00:08:28;101874.59;;;-6.22;100.00
8051;BME280;4068;42.158;24.732;2023-02-10T00:11:02;101859.69;;;-6.34;100.00
8051;BME280;4068;42.158;24.732;2023-02-10T00:13:28;101879.63;;;-6.28;100.00
8051;BME280;4068;42.158;24.732;2023-02-10T00:15:56;101877.00;;;-6.30;100.00
8051;BME280;4068;42.158;24.732;2023-02-10T00:18:22;101870.00;;;-6.34;100.00
8051;BME280;4068;42.158;24.732;2023-02-10T00:20:47;101838.59;;;-6.49;100.00
8051;BME280;4068;42.158;24.732;2023-02-10T00:23:13;101871.84;;;-6.30;100.00
8051;BME280;4068;42.158;24.732;2023-02-10T00:25:38;101881.19;;;-6.33;100.00
8051;BME280;4068;42.158;24.732;2023-02-10T00:28:04;101860.34;;;-6.41;100.00
8051;BME280;4068;42.158;24.732;2023-02-10T00:30:30;101865.50;;;-6.41;100.00
8051;BME280;4068;42.158;24.732;2023-02-10T00:32:56;101858.66;;;-6.39;100.00
8051;BME280;4068;42.158;24.732;2023-02-10T00:35:21;101812.31;;;-6.68;100.00
8051;BME280;4068;42.158;24.732;2023-02-10T00:37:47;101862.19;;;-6.37;100.00
8051;BME280;4068;42.158;24.732;2023-02-10T00:40:12;101860.47;;;-6.36;100.00
8051;BME280;4068;42.158;24.732;2023-02-10T00:42:38;101851.78;;;-6.38;100.00
8051;BME280;4068;42.158;24.732;2023-02-10T00:45:04;101869.44;;;-6.22;100.00
8051;BME280;4068;42.158;24.732;2023-02-10T00:47:29;101854.63;;;-6.29;100.00
8051;BME280;4068;42.158;24.732;2023-02-10T00:49:54;101832.72;;;-6.44;100.00
8051;BME280;4068;42.158;24.732;2023-02-10T00:52:21;101854.63;;;-6.29;100.00
8051;BME280;4068;42.158;24.732;2023-02-10T00:54:47;101862.41;;;-6.28;100.00
8051;BME280;4068;42.158;24.732;2023-02-10T00:57:13;101852.91;;;-6.29;100.00
8051;BME280;4068;42.158;24.732;2023-02-10T00:59:38;101836.28;;;-6.38;100.00
8051;BME280;4068;42.158;24.732;2023-02-10T01:02:04;101849.41;;;-6.31;100.00
8051;BME280;4068;42.158;24.732;2023-02-10T01:04:29;101858.63;;;-6.40;100.00
8051;BME280;4068;42.158;24.732;2023-02-10T01:06:55;101841.97;;;-6.52;100.00
8051;BME280;4068;42.158;24.732;2023-02-10T01:09:20;101850.72;;;-6.47;100.00
8051;BME280;4068;42.158;24.732;2023-02-10T01:11:46;101852.22;;;-6.55;100.00
8051;BME280;4068;42.158;24.732;2023-02-10T01:14:11;101809.41;;;-6.79;100.00
8051;BME280;4068;42.158;24.732;2023-02-10T01:16:37;101835.50;;;-6.69;100.00
8051;BME280;4068;42.158;24.732;2023-02-10T01:19:02;101851.13;;;-6.63;100.00
8051;BME280;4068;42.158;24.732;2023-02-10T01:21:28;101802.22;;;-6.90;100.00
8051;BME280;4068;42.158;24.732;2023-02-10T01:23:55;101843.25;;;-6.69;100.00
8051;BME280;4068;42.158;24.732;2023-02-10T01:26:20;101829.25;;;-6.78;100.00
8051;BME280;4068;42.158;24.732;2023-02-10T01:28:46;101824.94;;;-6.77;100.00
8051;BME280;4068;42.158;24.732;2023-02-10T01:31:14;101838.00;;;-6.72;100.00
8051;BME280;4068;42.158;24.732;2023-02-10T01:33:39;101795.97;;;-6.99;100.00
8051;BME280;4068;42.158;24.732;2023-02-10T01:36:08;101810.03;;;-6.87;100.00
8051;BME280;4068;42.158;24.732;2023-02-10T01:38:34;101834.56;;;-6.71;100.00
8051;BME280;4068;42.158;24.732;2023-02-10T01:40:59;101804.88;;;-6.87;100.00
8051;BME280;4068;42.158;24.732;2023-02-10T01:43:25;101839.75;;;-6.70;100.00
8051;BME280;4068;42.158;24.732;2023-02-10T01:45:50;101834.72;;;-6.67;100.00
8051;BME280;4068;42.158;24.732;2023-02-10T01:48:16;101795.44;;;-6.87;100.00
8051;BME280;4068;42.158;24.732;2023-02-10T01:51:11;101836.63;;;-6.60;100.00
8051;BME280;4068;42.158;24.732;2023-02-10T01:53:38;101839.91;;;-6.65;100.00
8051;BME280;4068;42.158;24.732;2023-02-10T01:56:04;101834.72;;;-6.67;100.00
8051;BME280;4068;42.158;24.732;2023-02-10T01:58:32;101838.91;;;-6.70;100.00
8051;BME280;4068;42.158;24.732;2023-02-10T02:00:59;101828.38;;;-6.78;100.00
8051;BME280;4068;42.158;24.732;2023-02-10T02:03:24;101788.03;;;-7.06;100.00
8051;BME280;4068;42.158;24.732;2023-02-10T02:05:51;101813.19;;;-6.99;100.00
8051;BME280;4068;42.158;24.732;2023-02-10T02:08:23;101827.91;;;-6.95;100.00
8051;BME280;4068;42.158;24.732;2023-02-10T02:33:19;101807.31;;;-7.24;100.00
8051;BME280;4068;42.158;24.732;2023-02-10T02:36:01;101807.19;;;-7.29;100.00
8051;BME280;4068;42.158;24.732;2023-02-10T02:38:29;101799.31;;;-7.33;100.00
8051;BME280;4068;42.158;24.732;2023-02-10T02:40:55;101801.72;;;-7.39;100.00
8051;BME280;4068;42.158;24.732;2023-02-10T02:43:21;101803.50;;;-7.37;100.00
8051;BME280;4068;42.158;24.732;2023-02-10T02:45:53;101803.31;;;-7.43;100.00
8051;BME280;4068;42.158;24.732;2023-02-10T02:48:56;101799.88;;;-7.43;100.00
8051;BME280;4068;42.158;24.732;2023-02-10T02:56:47;101776.97;;;-7.63;100.00
8051;BME280;4068;42.158;24.732;2023-02-10T02:59:50;101795.47;;;-7.48;100.00
8051;BME280;4068;42.158;24.732;2023-02-10T03:02:19;101803.84;;;-7.55;100.00
8051;BME280;4068;42.158;24.732;2023-02-10T03:04:46;101764.38;;;-7.81;100.00
8051;BME280;4068;42.158;24.732;2023-02-10T03:07:13;101791.59;;;-7.62;100.00
8051;BME280;4068;42.158;24.732;2023-02-10T03:09:40;101797.00;;;-7.53;100.00
8051;BME280;4068;42.158;24.732;2023-02-10T03:12:06;101775.28;;;-7.61;100.00
8051;BME280;4068;42.158;24.732;2023-02-10T03:14:32;101794.41;;;-7.54;100.00
8051;BME280;4068;42.158;24.732;2023-02-10T03:16:57;101786.28;;;-7.67;100.00
8051;BME280;4068;42.158;24.732;2023-02-10T03:19:23;101788.81;;;-7.68;100.00
8051;BME280;4068;42.158;24.732;2023-02-10T03:21:49;101788.81;;;-7.68;100.00
8051;BME280;4068;42.158;24.732;2023-02-10T03:24:15;101787.81;;;-7.73;100.00
8051;BME280;4068;42.158;24.732;2023-02-10T03:26:42;101769.44;;;-7.84;100.00
8051;BME280;4068;42.158;24.732;2023-02-10T03:29:07;101802.69;;;-7.65;100.00
8051;BME280;4068;42.158;24.732;2023-02-10T03:31:33;101799.41;;;-7.59;100.00
8051;BME280;4068;42.158;24.732;2023-02-10T03:33:58;101766.38;;;-7.72;100.00
8051;BME280;4068;42.158;24.732;2023-02-10T03:36:24;101795.13;;;-7.58;100.00
8051;BME280;4068;42.158;24.732;2023-02-10T03:38:49;101794.19;;;-7.62;100.00
8051;BME280;4068;42.158;24.732;2023-02-10T03:41:15;101788.09;;;-7.64;100.00
8051;BME280;4068;42.158;24.732;2023-02-10T03:43:40;101800.19;;;-7.61;100.00
8051;BME280;4068;42.158;24.732;2023-02-10T03:46:08;101775.13;;;-7.67;100.00
8051;BME280;4068;42.158;24.732;2023-02-10T03:48:34;101789.75;;;-7.66;100.00
8051;BME280;4068;42.158;24.732;2023-02-10T03:51:01;101766.22;;;-7.77;100.00
8051;BME280;4068;42.158;24.732;2023-02-10T03:53:28;101782.72;;;-7.72;100.00
8051;BME280;4068;42.158;24.732;2023-02-10T03:55:54;101792.75;;;-7.52;100.00
8051;BME280;4068;42.158;24.732;2023-02-10T03:58:20;101786.56;;;-6.65;100.00
8051;BME280;4068;42.158;24.732;2023-02-10T04:00:45;101785.94;;;-6.56;100.00
8051;BME280;4068;42.158;24.732;2023-02-10T04:03:11;101789.66;;;-6.45;100.00
8051;BME280;4068;42.158;24.732;2023-02-10T04:05:36;101729.19;;;-6.88;100.00
8051;BME280;4068;42.158;24.732;2023-02-10T04:08:01;101790.38;;;-6.84;100.00
8051;BME280;4068;42.158;24.732;2023-02-10T04:10:27;101748.81;;;-7.26;100.00
8051;BME280;4068;42.158;24.732;2023-02-10T04:12:53;101787.41;;;-6.98;100.00
8051;BME280;4068;42.158;24.732;2023-02-10T04:15:18;101788.00;;;-7.08;100.00
8051;BME280;4068;42.158;24.732;2023-02-10T04:17:44;101754.50;;;-7.06;100.00
8051;BME280;4068;42.158;24.732;2023-02-10T04:20:10;101791.66;;;-6.68;100.00
8051;BME280;4068;42.158;24.732;2023-02-10T04:22:37;101782.88;;;-6.41;100.00
8051;BME280;4068;42.158;24.732;2023-02-10T04:25:02;101788.28;;;-6.30;100.00
8051;BME280;4068;42.158;24.732;2023-02-10T04:27:28;101779.50;;;-6.02;100.00
8051;BME280;4068;42.158;24.732;2023-02-10T04:29:54;101777.91;;;-5.95;100.00
8051;BME280;4068;42.158;24.732;2023-02-10T04:32:20;101787.88;;;-6.12;100.00
8051;BME280;4068;42.158;24.732;2023-02-10T04:34:46;101781.19;;;-6.04;100.00
8051;BME280;4068;42.158;24.732;2023-02-10T04:37:11;101784.06;;;-6.28;100.00
8051;BME280;4068;42.158;24.732;2023-02-10T04:39:36;101762.41;;;-7.00;100.00
8051;BME280;4068;42.158;24.732;2023-02-10T04:42:02;101753.84;;;-7.30;100.00
8051;BME280;4068;42.158;24.732;2023-02-10T04:44:27;101767.03;;;-7.51;100.00
8051;BME280;4068;42.158;24.732;2023-02-10T04:46:53;101787.56;;;-7.54;100.00
8051;BME280;4068;42.158;24.732;2023-02-10T04:49:18;101785.28;;;-7.72;100.00
8051;BME280;4068;42.158;24.732;2023-02-10T04:51:44;101793.78;;;-7.74;100.00
8051;BME280;4068;42.158;24.732;2023-02-10T04:54:09;101785.16;;;-7.76;100.00
8051;BME280;4068;42.158;24.732;2023-02-10T04:56:35;101790.19;;;-7.80;100.00
8051;BME280;4068;42.158;24.732;2023-02-10T04:59:00;101800.13;;;-7.92;100.00
8051;BME280;4068;42.158;24.732;2023-02-10T05:01:26;101775.47;;;-8.11;100.00
8051;BME280;4068;42.158;24.732;2023-02-10T05:03:51;101799.16;;;-7.95;100.00
8051;BME280;4068;42.158;24.732;2023-02-10T05:06:17;101799.88;;;-8.00;100.00
8051;BME280;4068;42.158;24.732;2023-02-10T05:08:42;101802.41;;;-8.01;100.00
8051;BME280;4068;42.158;24.732;2023-02-10T05:11:11;101798.09;;;-8.02;100.00
8051;BME280;4068;42.158;24.732;2023-02-10T05:13:37;101802.13;;;-8.10;100.00
8051;BME280;4068;42.158;24.732;2023-02-10T05:16:03;101796.84;;;-8.15;100.00
8051;BME280;4068;42.158;24.732;2023-02-10T05:18:30;101795.81;;;-8.20;100.00
8051;BME280;4068;42.158;24.732;2023-02-10T05:20:56;101749.91;;;-8.34;100.00
8051;BME280;4068;42.158;24.732;2023-02-10T05:23:21;101802.28;;;-8.06;100.00
8051;BME280;4068;42.158;24.732;2023-02-10T05:25:47;101773.25;;;-8.27;100.00
8051;BME280;4068;42.158;24.732;2023-02-10T05:28:12;101780.16;;;-8.26;100.00
8051;BME280;4068;42.158;24.732;2023-02-10T05:30:37;101762.69;;;-8.35;100.00
8051;BME280;4068;42.158;24.732;2023-02-10T05:33:03;101772.44;;;-8.26;100.00
8051;BME280;4068;42.158;24.732;2023-02-10T05:35:28;101770.53;;;-8.32;100.00
8051;BME280;4068;42.158;24.732;2023-02-10T05:37:54;101773.06;;;-8.34;100.00
8051;BME280;4068;42.158;24.732;2023-02-10T05:40:19;101772.63;;;-8.20;100.00
8051;BME280;4068;42.158;24.732;2023-02-10T05:42:45;101803.41;;;-7.98;100.00
8051;BME280;4068;42.158;24.732;2023-02-10T05:45:10;101798.19;;;-7.99;100.00
8051;BME280;4068;42.158;24.732;2023-02-10T05:47:35;101814.97;;;-7.85;100.00
8051;BME280;4068;42.158;24.732;2023-02-10T05:50:01;101809.00;;;-7.84;100.00
8051;BME280;4068;42.158;24.732;2023-02-10T05:52:27;101815.72;;;-7.87;100.00
8051;BME280;4068;42.158;24.732;2023-02-10T05:54:52;101787.91;;;-7.99;100.00
8051;BME280;4068;42.158;24.732;2023-02-10T05:57:17;101803.94;;;-7.81;100.00
8051;BME280;4068;42.158;24.732;2023-02-10T05:59:43;101817.16;;;-7.68;100.00
8051;BME280;4068;42.158;24.732;2023-02-10T06:02:08;101816.59;;;-7.59;100.00
8051;BME280;4068;42.158;24.732;2023-02-10T06:04:34;101815.72;;;-7.60;100.00
8051;BME280;4068;42.158;24.732;2023-02-10T06:06:59;101819.41;;;-7.52;100.00
8051;BME280;4068;42.158;24.732;2023-02-10T06:09:24;101819.03;;;-7.35;100.00
8051;BME280;4068;42.158;24.732;2023-02-10T06:11:51;101830.50;;;-7.24;100.00
8051;BME280;4068;42.158;24.732;2023-02-10T06:14:17;101809.66;;;-7.32;100.00
8051;BME280;4068;42.158;24.732;2023-02-10T06:16:42;101815.19;;;-7.19;100.00
8051;BME280;4068;42.158;24.732;2023-02-10T06:19:08;101792.69;;;-7.25;100.00
8051;BME280;4068;42.158;24.732;2023-02-10T06:21:33;101830.41;;;-6.98;100.00
8051;BME280;4068;42.158;24.732;2023-02-10T06:23:59;101848.00;;;-6.83;100.00
8051;BME280;4068;42.158;24.732;2023-02-10T06:26:24;101843.00;;;-6.77;100.00
8051;BME280;4068;42.158;24.732;2023-02-10T06:28:51;101843.28;;;-6.68;100.00
8051;BME280;4068;42.158;24.732;2023-02-10T06:31:17;101847.66;;;-6.65;100.00
8051;BME280;4068;42.158;24.732;2023-02-10T06:33:42;101851.88;;;-6.67;100.00
8051;BME280;4068;42.158;24.732;2023-02-10T06:36:08;101846.06;;;-6.60;100.00
8051;BME280;4068;42.158;24.732;2023-02-10T06:38:35;101838.28;;;-6.62;100.00
8051;BME280;4068;42.158;24.732;2023-02-10T06:41:01;101850.59;;;-6.51;100.00
8051;BME280;4068;42.158;24.732;2023-02-10T06:43:26;101847.47;;;-6.39;100.00
8051;BME280;4068;42.158;24.732;2023-02-10T06:45:52;101843.56;;;-6.23;100.00
8051;BME280;4068;42.158;24.732;2023-02-10T06:48:17;101850.13;;;-6.01;100.00
8051;BME280;4068;42.158;24.732;2023-02-10T06:50:43;101852.16;;;-5.88;100.00
8051;BME280;4068;42.158;24.732;2023-02-10T06:53:08;101852.38;;;-5.79;100.00
8051;BME280;4068;42.158;24.732;2023-02-10T06:55:34;101842.16;;;-5.74;100.00
8051;BME280;4068;42.158;24.732;2023-02-10T06:58:01;101824.09;;;-5.73;100.00
8051;BME280;4068;42.158;24.732;2023-02-10T07:00:26;101843.41;;;-5.57;100.00
8051;BME280;4068;42.158;24.732;2023-02-10T07:02:52;101837.63;;;-5.45;100.00
8051;BME280;4068;42.158;24.732;2023-02-10T07:05:17;101803.56;;;-5.65;99.80
8051;BME280;4068;42.158;24.732;2023-02-10T07:07:43;101815.31;;;-5.41;100.00
8051;BME280;4068;42.158;24.732;2023-02-10T07:10:09;101798.34;;;-5.27;100.00
8051;BME280;4068;42.158;24.732;2023-02-10T07:12:35;101844.81;;;-4.90;100.00
8051;BME280;4068;42.158;24.732;2023-02-10T07:15:01;101847.72;;;-4.73;99.28
8051;BME280;4068;42.158;24.732;2023-02-10T07:17:26;101835.00;;;-4.61;98.07
8051;BME280;4068;42.158;24.732;2023-02-10T07:19:52;101820.25;;;-4.65;97.49
8051;BME280;4068;42.158;24.732;2023-02-10T07:22:17;101850.16;;;-4.35;96.35
8051;BME280;4068;42.158;24.732;2023-02-10T07:24:43;101823.22;;;-4.45;95.01
8051;BME280;4068;42.158;24.732;2023-02-10T07:27:08;101847.13;;;-4.11;94.69
8051;BME280;4068;42.158;24.732;2023-02-10T07:29:33;101849.13;;;-3.94;93.56
8051;BME280;4068;42.158;24.732;2023-02-10T07:31:59;101853.69;;;-3.79;92.32
8051;BME280;4068;42.158;24.732;2023-02-10T07:34:25;101833.72;;;-3.84;90.77
8051;BME280;4068;42.158;24.732;2023-02-10T07:36:51;101843.56;;;-3.61;88.02
8051;BME280;4068;42.158;24.732;2023-02-10T07:39:25;101855.78;;;-3.54;86.98
8051;BME280;4068;42.158;24.732;2023-02-10T07:41:51;101845.44;;;-3.51;86.37
8051;BME280;4068;42.158;24.732;2023-02-10T07:44:17;101838.72;;;-3.38;85.53
8051;BME280;4068;42.158;24.732;2023-02-10T07:46:44;101820.53;;;-3.39;85.74
8051;BME280;4068;42.158;24.732;2023-02-10T07:49:09;101834.47;;;-3.33;84.89
8051;BME280;4068;42.158;24.732;2023-02-10T07:51:35;101823.28;;;-3.28;85.29
8051;BME280;4068;42.158;24.732;2023-02-10T07:54:01;101825.03;;;-3.26;83.45
8051;BME280;4068;42.158;24.732;2023-02-10T07:56:26;101833.09;;;-3.04;83.83
8051;BME280;4068;42.158;24.732;2023-02-10T07:58:51;101848.16;;;-2.74;82.42
8051;BME280;4068;42.158;24.732;2023-02-10T08:01:17;101849.19;;;-2.58;81.85
8051;BME280;4068;42.158;24.732;2023-02-10T08:03:43;101846.69;;;-2.52;81.14
8051;BME280;4068;42.158;24.732;2023-02-10T08:06:08;101839.75;;;-2.51;81.44
8051;BME280;4068;42.158;24.732;2023-02-10T08:08:34;101845.22;;;-2.23;81.34
8051;BME280;4068;42.158;24.732;2023-02-10T08:11:05;101847.75;;;-2.30;78.52
8051;BME280;4068;42.158;24.732;2023-02-10T08:13:32;101845.97;;;-2.34;79.08
8051;BME280;4068;42.158;24.732;2023-02-10T08:15:57;101844.50;;;-2.05;79.87
8051;BME280;4068;42.158;24.732;2023-02-10T08:18:23;101841.16;;;-1.95;79.45
8051;BME280;4068;42.158;24.732;2023-02-10T08:20:48;101834.34;;;-1.75;78.53
8051;BME280;4068;42.158;24.732;2023-02-10T08:23:16;101824.03;;;-1.62;78.89
8051;BME280;4068;42.158;24.732;2023-02-10T08:25:41;101833.69;;;-1.41;77.79
8051;BME280;4068;42.158;24.732;2023-02-10T08:28:07;101819.84;;;-1.34;76.57
8051;BME280;4068;42.158;24.732;2023-02-10T08:30:32;101785.97;;;-1.35;75.69
8051;BME280;4068;42.158;24.732;2023-02-10T08:32:58;101806.94;;;-1.09;74.22
8051;BME280;4068;42.158;24.732;2023-02-10T08:35:24;101833.91;;;-0.92;72.08
8051;BME280;4068;42.158;24.732;2023-02-10T08:37:50;101832.22;;;-0.74;70.87
8051;BME280;4068;42.158;24.732;2023-02-10T08:40:16;101819.19;;;-0.76;71.06
8051;BME280;4068;42.158;24.732;2023-02-10T08:42:42;101833.97;;;-0.75;70.53
8051;BME280;4068;42.158;24.732;2023-02-10T08:45:08;101834.00;;;-0.67;69.20
8051;BME280;4068;42.158;24.732;2023-02-10T08:47:33;101830.50;;;-0.66;69.43
8051;BME280;4068;42.158;24.732;2023-02-10T08:49:59;101800.03;;;-1.02;69.45
8051;BME280;4068;42.158;24.732;2023-02-10T08:52:25;101827.06;;;-0.66;70.35
8051;BME280;4068;42.158;24.732;2023-02-10T08:54:51;101836.66;;;-0.42;67.85
8051;BME280;4068;42.158;24.732;2023-02-10T08:57:17;101794.91;;;-0.50;67.23
8051;BME280;4068;42.158;24.732;2023-02-10T08:59:42;101827.13;;;-0.31;66.57
8051;BME280;4068;42.158;24.732;2023-02-10T09:02:10;101826.25;;;-0.27;66.84
8051;BME280;4068;42.158;24.732;2023-02-10T09:04:36;101806.25;;;-0.15;66.75
8051;BME280;4068;42.158;24.732;2023-02-10T09:07:02;101827.97;;;0.10;65.59
8051;BME280;4068;42.158;24.732;2023-02-10T09:09:27;101806.22;;;0.17;64.61
8051;BME280;4068;42.158;24.732;2023-02-10T09:11:53;101818.41;;;0.33;64.04
8051;BME280;4068;42.158;24.732;2023-02-10T09:14:20;101782.72;;;0.26;64.27
8051;BME280;4068;42.158;24.732;2023-02-10T09:16:45;101799.25;;;0.39;62.62
8051;BME280;4068;42.158;24.732;2023-02-10T09:19:11;101772.31;;;0.11;62.56
8051;BME280;4068;42.158;24.732;2023-02-10T09:21:36;101776.63;;;0.33;62.59
8051;BME280;4068;42.158;24.732;2023-02-10T09:24:02;101768.84;;;0.09;63.64
8051;BME280;4068;42.158;24.732;2023-02-10T09:26:28;101807.94;;;0.46;63.12
8051;BME280;4068;42.158;24.732;2023-02-10T09:28:53;101753.13;;;0.33;62.84
8051;BME280;4068;42.158;24.732;2023-02-10T09:31:18;101793.97;;;0.56;62.81
8051;BME280;4068;42.158;24.732;2023-02-10T09:33:44;101768.75;;;0.47;63.05
8051;BME280;4068;42.158;24.732;2023-02-10T09:36:14;101787.78;;;0.80;62.29
8051;BME280;4068;42.158;24.732;2023-02-10T09:38:40;101784.25;;;0.98;60.94
8051;BME280;4068;42.158;24.732;2023-02-10T09:54:32;101759.75;;;1.15;57.56
8051;BME280;4068;42.158;24.732;2023-02-10T09:57:08;101742.38;;;1.05;58.20
8051;BME280;4068;42.158;24.732;2023-02-10T09:59:37;101753.56;;;1.30;57.36
8051;BME280;4068;42.158;24.732;2023-02-10T10:02:16;101750.25;;;1.01;56.77
8051;BME280;4068;42.158;24.732;2023-02-10T10:04:44;101749.38;;;0.99;58.61
8051;BME280;4068;42.158;24.732;2023-02-10T10:07:13;101734.34;;;1.32;58.04
8051;BME280;4068;42.158;24.732;2023-02-10T10:09:46;101724.50;;;1.64;56.60
8051;BME280;4068;42.158;24.732;2023-02-10T10:12:17;101695.84;;;1.53;56.67
8051;BME280;4068;42.158;24.732;2023-02-10T10:14:44;101696.53;;;1.72;56.19
8051;BME280;4068;42.158;24.732;2023-02-10T10:17:25;101696.31;;;1.97;54.86
8051;BME280;4068;42.158;24.732;2023-02-10T10:26:08;101704.22;;;1.90;53.79
8051;BME280;4068;42.158;24.732;2023-02-10T10:31:15;101702.34;;;2.03;54.26
8051;BME280;4068;42.158;24.732;2023-02-10T10:36:22;101699.28;;;2.42;52.32
8051;BME280;4068;42.158;24.732;2023-02-10T10:38:58;101685.31;;;2.41;52.12
8051;BME280;4068;42.158;24.732;2023-02-10T10:41:31;101689.47;;;2.61;51.44
8051;BME280;4068;42.158;24.732;2023-02-10T10:43:57;101684.97;;;2.68;50.86
8051;BME280;4068;42.158;24.732;2023-02-10T10:49:26;101679.47;;;2.89;49.90
8051;BME280;4068;42.158;24.732;2023-02-10T10:51:51;101674.38;;;2.77;49.21
8051;BME280;4068;42.158;24.732;2023-02-10T10:54:19;101670.13;;;2.70;49.83
8051;BME280;4068;42.158;24.732;2023-02-10T10:57:04;101663.81;;;2.82;49.21
8051;BME280;4068;42.158;24.732;2023-02-10T10:59:45;101641.16;;;2.79;49.69
8051;BME280;4068;42.158;24.732;2023-02-10T11:02:20;101659.09;;;3.07;49.31
8051;BME280;4068;42.158;24.732;2023-02-10T11:05:06;101618.81;;;2.52;49.73
8051;BME280;4068;42.158;24.732;2023-02-10T11:07:36;101610.69;;;2.70;50.02
8051;BME280;4068;42.158;24.732;2023-02-10T11:10:03;101641.63;;;3.06;49.07
8051;BME280;4068;42.158;24.732;2023-02-10T11:12:33;101636.53;;;2.97;48.63
8051;BME280;4068;42.158;24.732;2023-02-10T11:15:01;101637.53;;;2.86;48.74
8051;BME280;4068;42.158;24.732;2023-02-10T11:17:39;101616.06;;;2.63;49.86
8051;BME280;4068;42.158;24.732;2023-02-10T11:20:26;101627.38;;;2.65;49.55
8051;BME280;4068;42.158;24.732;2023-02-10T11:23:04;101629.06;;;2.69;49.86
8051;BME280;4068;42.158;24.732;2023-02-10T11:25:36;101632.28;;;2.89;49.51
8051;BME280;4068;42.158;24.732;2023-02-10T11:28:05;101618.97;;;3.02;49.59
8051;BME280;4068;42.158;24.732;2023-02-10T11:30:33;101597.84;;;3.11;48.76
8051;BME280;4068;42.158;24.732;2023-02-10T11:33:01;101615.97;;;3.23;47.81
8051;BME280;4068;42.158;24.732;2023-02-10T11:35:27;101617.25;;;3.01;48.45
8051;BME280;4068;42.158;24.732;2023-02-10T11:38:14;101602.28;;;3.06;48.58
8051;BME280;4068;42.158;24.732;2023-02-10T11:40:51;101601.78;;;3.37;47.88
8051;BME280;4068;42.158;24.732;2023-02-10T11:43:18;101606.97;;;3.40;47.69
8051;BME280;4068;42.158;24.732;2023-02-10T11:45:58;101610.75;;;3.72;46.48
8051;BME280;4068;42.158;24.732;2023-02-10T11:48:26;101598.59;;;3.66;46.27
8051;BME280;4068;42.158;24.732;2023-02-10T11:51:23;101596.59;;;3.80;46.48
8051;BME280;4068;42.158;24.732;2023-02-10T11:53:48;101583.53;;;3.77;45.99
8051;BME280;4068;42.158;24.732;2023-02-10T12:02:18;101556.41;;;3.77;45.24
8051;BME280;4068;42.158;24.732;2023-02-10T12:05:03;101574.50;;;3.92;44.90
8051;BME280;4068;42.158;24.732;2023-02-10T12:10:20;101566.06;;;3.76;45.23
8051;BME280;4068;42.158;24.732;2023-02-10T12:15:38;101562.16;;;3.96;44.06
8051;BME280;4068;42.158;24.732;2023-02-10T12:23:57;101550.06;;;4.29;41.54
8051;BME280;4068;42.158;24.732;2023-02-10T12:26:37;101540.44;;;4.28;40.64
8051;BME280;4068;42.158;24.732;2023-02-10T12:32:17;101535.22;;;3.86;41.11
8051;BME280;4068;42.158;24.732;2023-02-10T12:48:40;101518.91;;;4.12;39.63
8051;BME280;4068;42.158;24.732;2023-02-10T12:54:01;101520.66;;;4.13;39.45
8051;BME280;4068;42.158;24.732;2023-02-10T12:56:33;101506.41;;;4.24;39.06
8051;BME280;4068;42.158;24.732;2023-02-10T12:59:10;101498.34;;;4.31;38.91
8051;BME280;4068;42.158;24.732;2023-02-10T13:01:50;101521.97;;;4.31;39.02
8051;BME280;4068;42.158;24.732;2023-02-10T13:04:22;101475.06;;;3.77;39.72
8051;BME280;4068;42.158;24.732;2023-02-10T13:06:57;101496.47;;;3.97;39.70
8051;BME280;4068;42.158;24.732;2023-02-10T13:09:35;101501.59;;;4.04;39.42
8051;BME280;4068;42.158;24.732;2023-02-10T13:14:40;101497.75;;;4.19;38.54
8051;BME280;4068;42.158;24.732;2023-02-10T13:17:08;101499.28;;;3.90;37.52
8051;BME280;4068;42.158;24.732;2023-02-10T13:19:57;101505.06;;;3.65;38.11
8051;BME280;4068;42.158;24.732;2023-02-10T13:25:14;101492.56;;;3.76;37.28
8051;BME280;4068;42.158;24.732;2023-02-10T13:27:49;101493.47;;;3.75;37.64
8051;BME280;4068;42.158;24.732;2023-02-10T14:31:16;101469.84;;;3.32;39.60
8051;BME280;4068;42.158;24.732;2023-02-10T14:33:55;101472.50;;;3.30;39.25
8051;BME280;4068;42.158;24.732;2023-02-10T14:36:21;101479.47;;;3.31;39.40
8051;BME280;4068;42.158;24.732;2023-02-10T14:38:54;101435.28;;;3.11;39.39
8051;BME280;4068;42.158;24.732;2023-02-10T14:41:21;101453.25;;;3.31;39.62
8051;BME280;4068;42.158;24.732;2023-02-10T14:43:48;101450.91;;;3.17;39.25
8051;BME280;4068;42.158;24.732;2023-02-10T14:46:20;101455.25;;;3.18;39.69
8051;BME280;4068;42.158;24.732;2023-02-10T14:48:47;101443.34;;;3.00;39.94
8051;BME280;4068;42.158;24.732;2023-02-10T14:51:22;101458.94;;;3.06;40.48
8051;BME280;4068;42.158;24.732;2023-02-10T14:53:48;101473.75;;;3.09;40.21
8051;BME280;4068;42.158;24.732;2023-02-10T14:56:22;101464.47;;;2.92;40.69
8051;BME280;4068;42.158;24.732;2023-02-10T14:58:48;101465.53;;;2.82;40.36
8051;BME280;4068;42.158;24.732;2023-02-10T15:03:47;101436.38;;;2.49;40.68
8051;BME280;4068;42.158;24.732;2023-02-10T15:06:16;101421.75;;;2.36;40.72
8051;BME280;4068;42.158;24.732;2023-02-10T15:11:28;101466.88;;;2.53;41.30
8051;BME280;4068;42.158;24.732;2023-02-10T15:14:48;101464.41;;;2.44;41.13
8051;BME280;4068;42.158;24.732;2023-02-10T15:17:19;101467.22;;;2.32;41.41
8051;BME280;4068;42.158;24.732;2023-02-10T15:20:00;101472.59;;;2.22;42.01
8051;BME280;4068;42.158;24.732;2023-02-10T15:23:18;101469.25;;;2.13;42.16
8051;BME280;4068;42.158;24.732;2023-02-10T15:25:33;101469.38;;;2.03;42.48
8051;BME280;4068;42.158;24.732;2023-02-10T15:33:17;101466.41;;;1.66;42.58
8051;BME280;4068;42.158;24.732;2023-02-10T15:38:57;101462.22;;;1.49;43.98
8051;BME280;4068;42.158;24.732;2023-02-10T15:41:41;101468.41;;;1.44;44.30
8051;BME280;4068;42.158;24.732;2023-02-10T15:46:50;101473.81;;;1.28;45.08
8051;BME280;4068;42.158;24.732;2023-02-10T15:49:17;101473.06;;;1.18;45.37
8051;BME280;4068;42.158;24.732;2023-02-10T15:51:52;101455.03;;;0.91;45.68
8051;BME280;4068;42.158;24.732;2023-02-10T15:54:19;101477.69;;;0.90;46.56
8051;BME280;4068;42.158;24.732;2023-02-10T15:56:59;101480.38;;;0.82;46.20
8051;BME280;4068;42.158;24.732;2023-02-10T15:59:26;101471.75;;;0.76;46.69